Iatt Lake, Louisiana
Current Conditions -  °F | °C
As of 11:55 AM on Friday 21 Nov 2014 (Local Time) from KIER Reporting Station
Overcast Overcast  
Wind Chill: 64°   Ceiling: 6500
Heat Index: 64°   Visibility: 10mi
Dew Point: 55°   Wind: 12mph
Humidity: 71%   Direction: 140°SE
Pressure: 30.22"   Gusts: NA
Location:  31.8476°N, 92.7651°W
Report Text: KIER 211755Z AUTO 14010KT 10SM OVC065 18/13 A3022 RMK AO2 60001 T01780125 10178 20125
Loading
Personal Weather Stations






























Interactive Weather Map New forecast layout! Learn more

10-Day Weather Forecast

Advertisements
Track Severe Weather on mobile